23/11 a 1º/12 - Sistemas más organizados e intensos. Períodos de calor fuerte C y N; tormentas.

Avatar de Usuario
Diecha
Mensajes: 13758
Registrado: Jue Ago 25, 2011 9:31 pm
Ubicación: Lomas de Zamora

Re: 23/11 a 1º/12 - Sistemas más organizados e intensos. Períodos de calor fuerte C y N; tormentas.

Mensaje por Diecha » Mar Nov 24, 2020 1:04 pm


Avatar de Usuario
Marg Tor
Mensajes: 1796
Registrado: Jue Sep 20, 2018 8:54 pm
Ubicación: Rosario

Re: 23/11 a 1º/12 - Sistemas más organizados e intensos. Períodos de calor fuerte C y N; tormentas.

Mensaje por Marg Tor » Mar Nov 24, 2020 1:12 pm

37,6 el aero a las 13 hs.
Nena, vi un rayo... vuelvo en unas horas...
Te duele el calor y la humedad? Adermicina.
EMA Villa Gdor. Gálvez
EMA Villa Gdor. Gálvez Cooperativa

Avatar de Usuario
Diecha
Mensajes: 13758
Registrado: Jue Ago 25, 2011 9:31 pm
Ubicación: Lomas de Zamora

Re: 23/11 a 1º/12 - Sistemas más organizados e intensos. Períodos de calor fuerte C y N; tormentas.

Mensaje por Diecha » Mar Nov 24, 2020 2:05 pm


Avatar de Usuario
dlm86_fv
Mensajes: 4202
Registrado: Mié Abr 13, 2011 1:04 am
Ubicación: Estanislao Severo Zeballos, Florencio Varela, Gran Buenos Aires
Contactar:

Re: 23/11 a 1º/12 - Sistemas más organizados e intensos. Períodos de calor fuerte C y N; tormentas.

Mensaje por dlm86_fv » Mar Nov 24, 2020 2:06 pm

Rosario 38,2
Gualeguaychú 38,7
Por muy larga que sea la tormenta, el sol siempre vuelve a brillar entre las nubes.

Atte, Diego de Varela.

Imagen

Avatar de Usuario
Marg Tor
Mensajes: 1796
Registrado: Jue Sep 20, 2018 8:54 pm
Ubicación: Rosario

Re: 23/11 a 1º/12 - Sistemas más organizados e intensos. Períodos de calor fuerte C y N; tormentas.

Mensaje por Marg Tor » Mar Nov 24, 2020 2:15 pm

38,2 la ema. Igual que el aero.
Llegará o no llegará :?:
Nena, vi un rayo... vuelvo en unas horas...
Te duele el calor y la humedad? Adermicina.
EMA Villa Gdor. Gálvez
EMA Villa Gdor. Gálvez Cooperativa

Avatar de Usuario
Diecha
Mensajes: 13758
Registrado: Jue Ago 25, 2011 9:31 pm
Ubicación: Lomas de Zamora

Re: 23/11 a 1º/12 - Sistemas más organizados e intensos. Períodos de calor fuerte C y N; tormentas.

Mensaje por Diecha » Mar Nov 24, 2020 2:18 pm

- San Fernando 14 hs: SADF 241700Z 09006KT 9999 FEW045 BKN200 30/19 Q1008
- Aeroparque 14 hs: SABE 241700Z 09004KT CAVOK 28/17 Q1008
- Ezeiza 14 hs: SAEZ 241700Z 14005KT CAVOK 32/17 Q1008

Imagen
Imagen
Imagen

Avatar de Usuario
daros22
Mensajes: 3505
Registrado: Mié Abr 20, 2011 5:18 am
Ubicación: Rosario

Re: 23/11 a 1º/12 - Sistemas más organizados e intensos. Períodos de calor fuerte C y N; tormentas.

Mensaje por daros22 » Mar Nov 24, 2020 2:30 pm

Marg Tor escribió:
Mar Nov 24, 2020 2:15 pm
38,2 la ema. Igual que el aero.
Llegará o no llegará :?:

Vos estás esperando que hagan 40°? Olvídate que pase...jejeje... Hace años hubo días mucho más probables que hoy dónde se veían y pronosticaban 41° o 42° para esta zona y de casualidad hizo 39°

Ya comienza a nublarse bastante por acá.

Avatar de Usuario
Seba
Mensajes: 17087
Registrado: Mié Jul 15, 2009 3:31 pm
Ubicación: Palermo, CABA

Re: 23/11 a 1º/12 - Sistemas más organizados e intensos. Períodos de calor fuerte C y N; tormentas.

Mensaje por Seba » Mar Nov 24, 2020 2:34 pm

40,3 en la EMA de Concepción!
Es algo absolutamente inisual para la zona, que le cuesta meter valores extremos.
Con raíces pero en libertad.

Avatar de Usuario
Fedex
Mensajes: 3097
Registrado: Jue Jul 17, 2014 3:30 pm
Ubicación: Villa Ballester, San Martin, Buenos Aires
Contactar:

Re: 23/11 a 1º/12 - Sistemas más organizados e intensos. Períodos de calor fuerte C y N; tormentas.

Mensaje por Fedex » Mar Nov 24, 2020 2:38 pm

Buen sondeo el de hoy, y llegan en un buen horario

Imagen
Cada vez que se superan los 24°C de Td, un gatito renace.

#MuerteALasLineas

El corazón late y es suficiente

Avatar de Usuario
dlm86_fv
Mensajes: 4202
Registrado: Mié Abr 13, 2011 1:04 am
Ubicación: Estanislao Severo Zeballos, Florencio Varela, Gran Buenos Aires
Contactar:

Re: 23/11 a 1º/12 - Sistemas más organizados e intensos. Períodos de calor fuerte C y N; tormentas.

Mensaje por dlm86_fv » Mar Nov 24, 2020 2:42 pm

Les dejo esta perlita de hace exactamente 3 años, nada que ver con lo que está pasando ahora (en especial, en Rosario)

Imagen
Por muy larga que sea la tormenta, el sol siempre vuelve a brillar entre las nubes.

Atte, Diego de Varela.

Imagen

Responder